sensor_id;sensor_type;location;lat;lon;timestamp;P1;durP1;ratioP1;P2;durP2;ratioP2
359;SDS011;168;48.872;9.226;2022-11-02T00:00:12;6.00;;;4.80;;
359;SDS011;168;48.872;9.226;2022-11-02T00:02:41;5.70;;;4.77;;
359;SDS011;168;48.872;9.226;2022-11-02T00:05:10;7.73;;;4.63;;
359;SDS011;168;48.872;9.226;2022-11-02T00:07:38;6.93;;;5.23;;
359;SDS011;168;48.872;9.226;2022-11-02T00:10:06;6.30;;;5.33;;
359;SDS011;168;48.872;9.226;2022-11-02T00:12:34;11.90;;;6.07;;
359;SDS011;168;48.872;9.226;2022-11-02T00:15:02;8.03;;;5.93;;
359;SDS011;168;48.872;9.226;2022-11-02T00:17:32;6.50;;;5.57;;
359;SDS011;168;48.872;9.226;2022-11-02T00:20:00;6.00;;;5.50;;
359;SDS011;168;48.872;9.226;2022-11-02T00:22:30;7.80;;;6.20;;
359;SDS011;168;48.872;9.226;2022-11-02T00:24:59;10.10;;;6.13;;
359;SDS011;168;48.872;9.226;2022-11-02T00:27:29;11.13;;;7.07;;
359;SDS011;168;48.872;9.226;2022-11-02T00:32:24;11.23;;;7.30;;
359;SDS011;168;48.872;9.226;2022-11-02T00:34:53;9.13;;;6.77;;
359;SDS011;168;48.872;9.226;2022-11-02T00:37:21;7.93;;;7.13;;
359;SDS011;168;48.872;9.226;2022-11-02T00:39:48;9.47;;;7.07;;
359;SDS011;168;48.872;9.226;2022-11-02T00:42:16;11.57;;;7.30;;
359;SDS011;168;48.872;9.226;2022-11-02T00:44:43;8.10;;;7.00;;
359;SDS011;168;48.872;9.226;2022-11-02T00:47:10;10.33;;;7.03;;
359;SDS011;168;48.872;9.226;2022-11-02T00:49:38;8.80;;;7.90;;
359;SDS011;168;48.872;9.226;2022-11-02T00:52:07;11.00;;;7.00;;
359;SDS011;168;48.872;9.226;2022-11-02T00:54:35;9.73;;;8.53;;
359;SDS011;168;48.872;9.226;2022-11-02T00:57:02;12.23;;;8.00;;
359;SDS011;168;48.872;9.226;2022-11-02T00:59:30;8.90;;;8.00;;
359;SDS011;168;48.872;9.226;2022-11-02T01:01:57;15.83;;;9.40;;
359;SDS011;168;48.872;9.226;2022-11-02T01:04:24;10.60;;;8.80;;
359;SDS011;168;48.872;9.226;2022-11-02T01:06:52;13.87;;;10.20;;
359;SDS011;168;48.872;9.226;2022-11-02T01:09:21;11.83;;;8.10;;
359;SDS011;168;48.872;9.226;2022-11-02T01:11:49;9.97;;;8.40;;
359;SDS011;168;48.872;9.226;2022-11-02T01:14:17;7.87;;;7.17;;
359;SDS011;168;48.872;9.226;2022-11-02T01:16:44;10.50;;;8.20;;
359;SDS011;168;48.872;9.226;2022-11-02T01:19:12;10.47;;;8.30;;
359;SDS011;168;48.872;9.226;2022-11-02T01:21:40;9.97;;;8.10;;
359;SDS011;168;48.872;9.226;2022-11-02T01:24:07;7.83;;;7.13;;
359;SDS011;168;48.872;9.226;2022-11-02T01:26:36;8.30;;;7.40;;
359;SDS011;168;48.872;9.226;2022-11-02T01:29:03;12.07;;;8.50;;
359;SDS011;168;48.872;9.226;2022-11-02T01:31:31;22.43;;;8.40;;
359;SDS011;168;48.872;9.226;2022-11-02T01:33:58;10.63;;;7.80;;
359;SDS011;168;48.872;9.226;2022-11-02T01:36:26;8.03;;;7.23;;
359;SDS011;168;48.872;9.226;2022-11-02T01:38:54;10.20;;;7.27;;
359;SDS011;168;48.872;9.226;2022-11-02T01:41:21;10.83;;;7.10;;
359;SDS011;168;48.872;9.226;2022-11-02T01:43:52;7.97;;;6.97;;
359;SDS011;168;48.872;9.226;2022-11-02T01:46:24;8.27;;;6.50;;
359;SDS011;168;48.872;9.226;2022-11-02T01:48:56;8.17;;;6.13;;
359;SDS011;168;48.872;9.226;2022-11-02T01:51:29;7.23;;;5.57;;
359;SDS011;168;48.872;9.226;2022-11-02T01:54:02;7.40;;;5.00;;
359;SDS011;168;48.872;9.226;2022-11-02T01:56:33;9.70;;;5.77;;
359;SDS011;168;48.872;9.226;2022-11-02T01:59:05;6.63;;;5.90;;
359;SDS011;168;48.872;9.226;2022-11-02T02:01:35;6.10;;;5.20;;
359;SDS011;168;48.872;9.226;2022-11-02T02:04:02;5.60;;;5.10;;
359;SDS011;168;48.872;9.226;2022-11-02T02:06:30;6.77;;;4.90;;
359;SDS011;168;48.872;9.226;2022-11-02T02:08:59;6.07;;;5.47;;
359;SDS011;168;48.872;9.226;2022-11-02T02:11:31;10.27;;;5.90;;
359;SDS011;168;48.872;9.226;2022-11-02T02:14:00;7.03;;;5.07;;
359;SDS011;168;48.872;9.226;2022-11-02T02:19:31;6.43;;;5.07;;
359;SDS011;168;48.872;9.226;2022-11-02T02:22:12;5.80;;;5.17;;
359;SDS011;168;48.872;9.226;2022-11-02T02:24:49;6.17;;;5.47;;
359;SDS011;168;48.872;9.226;2022-11-02T02:27:26;6.60;;;5.53;;
359;SDS011;168;48.872;9.226;2022-11-02T02:30:00;6.53;;;5.83;;
359;SDS011;168;48.872;9.226;2022-11-02T02:32:33;7.30;;;5.57;;
359;SDS011;168;48.872;9.226;2022-11-02T02:35:09;8.10;;;5.53;;
359;SDS011;168;48.872;9.226;2022-11-02T02:37:42;6.50;;;4.93;;
359;SDS011;168;48.872;9.226;2022-11-02T02:40:15;7.77;;;5.47;;
359;SDS011;168;48.872;9.226;2022-11-02T02:42:47;6.33;;;4.87;;
359;SDS011;168;48.872;9.226;2022-11-02T02:45:21;6.67;;;5.33;;
359;SDS011;168;48.872;9.226;2022-11-02T02:47:56;7.30;;;4.80;;
359;SDS011;168;48.872;9.226;2022-11-02T02:50:27;6.77;;;5.13;;
359;SDS011;168;48.872;9.226;2022-11-02T02:52:57;5.03;;;4.63;;
359;SDS011;168;48.872;9.226;2022-11-02T02:55:29;6.40;;;4.50;;
359;SDS011;168;48.872;9.226;2022-11-02T02:57:59;5.27;;;4.77;;
359;SDS011;168;48.872;9.226;2022-11-02T03:00:29;4.97;;;4.00;;
359;SDS011;168;48.872;9.226;2022-11-02T03:03:00;6.87;;;4.83;;
359;SDS011;168;48.872;9.226;2022-11-02T03:05:30;4.43;;;3.80;;
359;SDS011;168;48.872;9.226;2022-11-02T03:08:01;4.97;;;4.23;;
359;SDS011;168;48.872;9.226;2022-11-02T03:10:32;4.43;;;4.03;;
359;SDS011;168;48.872;9.226;2022-11-02T03:13:06;7.47;;;5.10;;
359;SDS011;168;48.872;9.226;2022-11-02T03:15:41;6.30;;;5.00;;
359;SDS011;168;48.872;9.226;2022-11-02T03:18:14;7.63;;;4.77;;
359;SDS011;168;48.872;9.226;2022-11-02T03:20:51;5.00;;;4.50;;
359;SDS011;168;48.872;9.226;2022-11-02T03:23:25;6.23;;;4.33;;
359;SDS011;168;48.872;9.226;2022-11-02T03:25:59;4.20;;;3.80;;
359;SDS011;168;48.872;9.226;2022-11-02T03:28:33;6.47;;;4.80;;
359;SDS011;168;48.872;9.226;2022-11-02T03:31:13;6.00;;;4.13;;
359;SDS011;168;48.872;9.226;2022-11-02T03:33:45;8.20;;;5.07;;
359;SDS011;168;48.872;9.226;2022-11-02T03:36:21;5.20;;;4.50;;
359;SDS011;168;48.872;9.226;2022-11-02T03:38:58;8.43;;;4.97;;
359;SDS011;168;48.872;9.226;2022-11-02T03:41:30;5.13;;;4.60;;
359;SDS011;168;48.872;9.226;2022-11-02T03:44:01;5.50;;;4.47;;
359;SDS011;168;48.872;9.226;2022-11-02T03:46:35;8.07;;;5.47;;
359;SDS011;168;48.872;9.226;2022-11-02T03:49:05;5.07;;;4.57;;
359;SDS011;168;48.872;9.226;2022-11-02T03:51:36;5.10;;;4.60;;
359;SDS011;168;48.872;9.226;2022-11-02T03:54:07;5.27;;;4.40;;
359;SDS011;168;48.872;9.226;2022-11-02T03:56:40;6.53;;;4.83;;
359;SDS011;168;48.872;9.226;2022-11-02T03:59:10;6.73;;;4.50;;
359;SDS011;168;48.872;9.226;2022-11-02T04:01:40;5.50;;;5.00;;
359;SDS011;168;48.872;9.226;2022-11-02T04:04:10;7.87;;;5.20;;
359;SDS011;168;48.872;9.226;2022-11-02T04:06:37;5.80;;;5.20;;
359;SDS011;168;48.872;9.226;2022-11-02T04:09:06;7.33;;;5.13;;
359;SDS011;168;48.872;9.226;2022-11-02T04:11:35;5.07;;;4.60;;
359;SDS011;168;48.872;9.226;2022-11-02T04:14:20;6.37;;;5.00;;
359;SDS011;168;48.872;9.226;2022-11-02T04:17:08;7.67;;;5.40;;
359;SDS011;168;48.872;9.226;2022-11-02T04:20:00;8.43;;;4.90;;
359;SDS011;168;48.872;9.226;2022-11-02T04:22:27;7.90;;;6.00;;
359;SDS011;168;48.872;9.226;2022-11-02T04:25:13;8.77;;;5.37;;
359;SDS011;168;48.872;9.226;2022-11-02T04:27:43;5.80;;;4.50;;
359;SDS011;168;48.872;9.226;2022-11-02T04:30:12;8.57;;;5.57;;
359;SDS011;168;48.872;9.226;2022-11-02T04:32:42;7.60;;;5.90;;
359;SDS011;168;48.872;9.226;2022-11-02T04:35:28;7.70;;;5.13;;
359;SDS011;168;48.872;9.226;2022-11-02T04:37:56;6.70;;;5.00;;
359;SDS011;168;48.872;9.226;2022-11-02T04:40:42;6.80;;;5.03;;
359;SDS011;168;48.872;9.226;2022-11-02T04:43:09;8.10;;;4.80;;
359;SDS011;168;48.872;9.226;2022-11-02T04:45:36;5.00;;;4.53;;
359;SDS011;168;48.872;9.226;2022-11-02T04:48:06;6.10;;;5.20;;
359;SDS011;168;48.872;9.226;2022-11-02T04:50:35;7.90;;;5.47;;
359;SDS011;168;48.872;9.226;2022-11-02T04:53:03;7.13;;;5.43;;
359;SDS011;168;48.872;9.226;2022-11-02T04:55:32;11.17;;;5.60;;
359;SDS011;168;48.872;9.226;2022-11-02T04:58:00;12.10;;;5.40;;
359;SDS011;168;48.872;9.226;2022-11-02T05:00:27;7.27;;;5.37;;
359;SDS011;168;48.872;9.226;2022-11-02T05:02:55;8.60;;;5.47;;
359;SDS011;168;48.872;9.226;2022-11-02T05:05:24;6.00;;;5.03;;
359;SDS011;168;48.872;9.226;2022-11-02T05:07:51;6.63;;;6.03;;
359;SDS011;168;48.872;9.226;2022-11-02T05:10:18;6.90;;;6.10;;
359;SDS011;168;48.872;9.226;2022-11-02T05:12:46;6.60;;;5.27;;
359;SDS011;168;48.872;9.226;2022-11-02T05:15:13;9.00;;;6.10;;
359;SDS011;168;48.872;9.226;2022-11-02T05:17:41;9.43;;;5.60;;
359;SDS011;168;48.872;9.226;2022-11-02T05:20:08;6.70;;;5.30;;
359;SDS011;168;48.872;9.226;2022-11-02T05:22:39;6.90;;;5.37;;
359;SDS011;168;48.872;9.226;2022-11-02T05:25:08;5.57;;;4.93;;
359;SDS011;168;48.872;9.226;2022-11-02T05:27:35;7.80;;;5.00;;
359;SDS011;168;48.872;9.226;2022-11-02T05:30:04;5.77;;;4.93;;
359;SDS011;168;48.872;9.226;2022-11-02T05:32:32;7.60;;;5.23;;
359;SDS011;168;48.872;9.226;2022-11-02T05:34:59;9.90;;;5.47;;
359;SDS011;168;48.872;9.226;2022-11-02T05:37:27;5.97;;;4.27;;
359;SDS011;168;48.872;9.226;2022-11-02T05:39:55;5.40;;;4.20;;
359;SDS011;168;48.872;9.226;2022-11-02T05:42:23;5.80;;;5.20;;
359;SDS011;168;48.872;9.226;2022-11-02T05:44:50;5.93;;;4.80;;
359;SDS011;168;48.872;9.226;2022-11-02T05:47:18;6.83;;;4.83;;
359;SDS011;168;48.872;9.226;2022-11-02T05:49:45;7.70;;;4.93;;
359;SDS011;168;48.872;9.226;2022-11-02T05:52:13;9.23;;;5.27;;
359;SDS011;168;48.872;9.226;2022-11-02T05:54:40;10.20;;;4.80;;
359;SDS011;168;48.872;9.226;2022-11-02T05:57:09;6.70;;;4.80;;
359;SDS011;168;48.872;9.226;2022-11-02T05:59:37;14.50;;;5.63;;
359;SDS011;168;48.872;9.226;2022-11-02T06:02:04;5.20;;;4.70;;
359;SDS011;168;48.872;9.226;2022-11-02T06:04:31;9.57;;;5.10;;
359;SDS011;168;48.872;9.226;2022-11-02T06:06:59;4.97;;;4.30;;
359;SDS011;168;48.872;9.226;2022-11-02T06:09:26;5.47;;;4.47;;
359;SDS011;168;48.872;9.226;2022-11-02T06:11:54;8.00;;;5.07;;
359;SDS011;168;48.872;9.226;2022-11-02T06:14:23;5.30;;;4.53;;
359;SDS011;168;48.872;9.226;2022-11-02T06:16:50;6.70;;;4.43;;
359;SDS011;168;48.872;9.226;2022-11-02T06:19:18;6.47;;;5.53;;
359;SDS011;168;48.872;9.226;2022-11-02T06:21:45;8.37;;;5.90;;
359;SDS011;168;48.872;9.226;2022-11-02T06:24:13;5.80;;;5.20;;
359;SDS011;168;48.872;9.226;2022-11-02T06:26:40;5.33;;;4.80;;
359;SDS011;168;48.872;9.226;2022-11-02T06:29:07;8.07;;;4.40;;
359;SDS011;168;48.872;9.226;2022-11-02T06:31:36;8.30;;;4.53;;
359;SDS011;168;48.872;9.226;2022-11-02T06:34:04;4.93;;;4.40;;
359;SDS011;168;48.872;9.226;2022-11-02T06:36:32;4.93;;;4.13;;
359;SDS011;168;48.872;9.226;2022-11-02T06:38:59;4.77;;;4.00;;
359;SDS011;168;48.872;9.226;2022-11-02T06:41:26;4.53;;;3.77;;
359;SDS011;168;48.872;9.226;2022-11-02T06:43:54;4.97;;;3.70;;
359;SDS011;168;48.872;9.226;2022-11-02T06:46:25;5.47;;;3.30;;
359;SDS011;168;48.872;9.226;2022-11-02T06:49:22;6.53;;;3.70;;
359;SDS011;168;48.872;9.226;2022-11-02T06:51:49;5.30;;;3.40;;
359;SDS011;168;48.872;9.226;2022-11-02T06:54:17;4.97;;;3.23;;
359;SDS011;168;48.872;9.226;2022-11-02T06:56:44;6.67;;;3.30;;
359;SDS011;168;48.872;9.226;2022-11-02T06:59:12;9.00;;;3.60;;
359;SDS011;168;48.872;9.226;2022-11-02T07:01:40;3.43;;;3.10;;
359;SDS011;168;48.872;9.226;2022-11-02T07:04:08;5.23;;;3.63;;
359;SDS011;168;48.872;9.226;2022-11-02T07:06:37;5.23;;;3.37;;
359;SDS011;168;48.872;9.226;2022-11-02T07:09:04;7.23;;;3.50;;
359;SDS011;168;48.872;9.226;2022-11-02T07:11:32;3.67;;;3.27;;
359;SDS011;168;48.872;9.226;2022-11-02T07:13:59;8.53;;;3.50;;
359;SDS011;168;48.872;9.226;2022-11-02T07:16:26;4.27;;;2.87;;
359;SDS011;168;48.872;9.226;2022-11-02T07:18:54;4.90;;;2.90;;
359;SDS011;168;48.872;9.226;2022-11-02T07:21:23;5.13;;;2.77;;
359;SDS011;168;48.872;9.226;2022-11-02T07:23:52;5.10;;;3.10;;
359;SDS011;168;48.872;9.226;2022-11-02T07:26:19;10.07;;;3.30;;
359;SDS011;168;48.872;9.226;2022-11-02T07:28:47;3.40;;;2.63;;
359;SDS011;168;48.872;9.226;2022-11-02T07:31:14;6.10;;;3.20;;
359;SDS011;168;48.872;9.226;2022-11-02T07:33:42;6.10;;;2.57;;
359;SDS011;168;48.872;9.226;2022-11-02T07:36:09;6.93;;;2.70;;
359;SDS011;168;48.872;9.226;2022-11-02T07:38:37;3.27;;;2.97;;
359;SDS011;168;48.872;9.226;2022-11-02T07:41:06;7.63;;;3.03;;
359;SDS011;168;48.872;9.226;2022-11-02T07:43:34;5.70;;;3.37;;
359;SDS011;168;48.872;9.226;2022-11-02T07:46:01;5.57;;;2.90;;
359;SDS011;168;48.872;9.226;2022-11-02T07:48:29;7.13;;;2.97;;
359;SDS011;168;48.872;9.226;2022-11-02T07:50:56;3.90;;;2.70;;
359;SDS011;168;48.872;9.226;2022-11-02T07:53:25;3.20;;;2.73;;
359;SDS011;168;48.872;9.226;2022-11-02T07:55:52;3.23;;;2.63;;
359;SDS011;168;48.872;9.226;2022-11-02T07:58:21;11.37;;;3.00;;
359;SDS011;168;48.872;9.226;2022-11-02T08:00:48;3.43;;;2.33;;
359;SDS011;168;48.872;9.226;2022-11-02T08:03:16;5.20;;;2.80;;
359;SDS011;168;48.872;9.226;2022-11-02T08:05:43;3.53;;;2.60;;
359;SDS011;168;48.872;9.226;2022-11-02T08:08:11;7.57;;;3.40;;
359;SDS011;168;48.872;9.226;2022-11-02T08:10:41;5.67;;;3.23;;
359;SDS011;168;48.872;9.226;2022-11-02T08:13:10;5.93;;;3.10;;
359;SDS011;168;48.872;9.226;2022-11-02T08:15:41;4.17;;;2.50;;
359;SDS011;168;48.872;9.226;2022-11-02T08:18:11;4.00;;;2.40;;
359;SDS011;168;48.872;9.226;2022-11-02T08:20:39;3.30;;;2.77;;
359;SDS011;168;48.872;9.226;2022-11-02T08:23:07;4.73;;;2.20;;
359;SDS011;168;48.872;9.226;2022-11-02T08:25:35;3.97;;;2.40;;
359;SDS011;168;48.872;9.226;2022-11-02T08:28:05;4.13;;;2.57;;
359;SDS011;168;48.872;9.226;2022-11-02T08:30:36;8.50;;;3.40;;
359;SDS011;168;48.872;9.226;2022-11-02T08:33:15;5.10;;;2.23;;
359;SDS011;168;48.872;9.226;2022-11-02T08:35:59;5.90;;;3.17;;
359;SDS011;168;48.872;9.226;2022-11-02T08:38:42;5.10;;;2.83;;
359;SDS011;168;48.872;9.226;2022-11-02T08:41:10;6.07;;;2.73;;
359;SDS011;168;48.872;9.226;2022-11-02T08:43:39;4.63;;;2.67;;
359;SDS011;168;48.872;9.226;2022-11-02T08:46:06;6.63;;;3.40;;
359;SDS011;168;48.872;9.226;2022-11-02T08:48:35;7.73;;;2.97;;
359;SDS011;168;48.872;9.226;2022-11-02T08:51:02;3.40;;;2.70;;
359;SDS011;168;48.872;9.226;2022-11-02T08:53:33;5.47;;;2.80;;
359;SDS011;168;48.872;9.226;2022-11-02T08:56:01;6.30;;;3.20;;
359;SDS011;168;48.872;9.226;2022-11-02T08:58:28;5.37;;;2.63;;
359;SDS011;168;48.872;9.226;2022-11-02T09:00:55;3.80;;;3.20;;
359;SDS011;168;48.872;9.226;2022-11-02T09:03:23;4.43;;;2.70;;
359;SDS011;168;48.872;9.226;2022-11-02T09:05:55;5.43;;;2.53;;
359;SDS011;168;48.872;9.226;2022-11-02T09:08:23;3.10;;;2.17;;
359;SDS011;168;48.872;9.226;2022-11-02T09:10:52;4.00;;;2.20;;
359;SDS011;168;48.872;9.226;2022-11-02T09:13:23;4.60;;;1.93;;
359;SDS011;168;48.872;9.226;2022-11-02T09:15:51;4.50;;;2.93;;
359;SDS011;168;48.872;9.226;2022-11-02T09:18:19;4.00;;;2.20;;
359;SDS011;168;48.872;9.226;2022-11-02T09:20:47;3.37;;;2.10;;
359;SDS011;168;48.872;9.226;2022-11-02T09:23:17;4.30;;;2.43;;
359;SDS011;168;48.872;9.226;2022-11-02T09:25:46;11.30;;;2.50;;
359;SDS011;168;48.872;9.226;2022-11-02T09:28:13;4.70;;;2.30;;
359;SDS011;168;48.872;9.226;2022-11-02T09:30:41;6.80;;;3.00;;
359;SDS011;168;48.872;9.226;2022-11-02T09:33:09;2.93;;;1.90;;
359;SDS011;168;48.872;9.226;2022-11-02T09:35:38;3.80;;;1.63;;
359;SDS011;168;48.872;9.226;2022-11-02T09:38:07;2.30;;;1.80;;
359;SDS011;168;48.872;9.226;2022-11-02T09:40:37;2.43;;;1.70;;
359;SDS011;168;48.872;9.226;2022-11-02T09:43:09;2.80;;;2.10;;
359;SDS011;168;48.872;9.226;2022-11-02T09:45:46;6.10;;;2.03;;
359;SDS011;168;48.872;9.226;2022-11-02T09:48:21;3.20;;;1.63;;
359;SDS011;168;48.872;9.226;2022-11-02T09:50:55;8.47;;;2.43;;
359;SDS011;168;48.872;9.226;2022-11-02T09:53:30;6.53;;;2.20;;
359;SDS011;168;48.872;9.226;2022-11-02T09:56:08;4.43;;;2.00;;
359;SDS011;168;48.872;9.226;2022-11-02T09:58:38;6.17;;;2.27;;
359;SDS011;168;48.872;9.226;2022-11-02T10:01:10;3.60;;;1.90;;
359;SDS011;168;48.872;9.226;2022-11-02T10:03:52;4.40;;;1.70;;
359;SDS011;168;48.872;9.226;2022-11-02T10:06:30;4.77;;;1.93;;
359;SDS011;168;48.872;9.226;2022-11-02T10:09:04;5.57;;;1.80;;
359;SDS011;168;48.872;9.226;2022-11-02T10:11:42;6.67;;;1.87;;
359;SDS011;168;48.872;9.226;2022-11-02T10:14:19;4.93;;;2.30;;
359;SDS011;168;48.872;9.226;2022-11-02T10:16:51;6.37;;;2.30;;
359;SDS011;168;48.872;9.226;2022-11-02T10:19:22;5.97;;;1.87;;
359;SDS011;168;48.872;9.226;2022-11-02T10:21:52;3.90;;;1.70;;
359;SDS011;168;48.872;9.226;2022-11-02T10:24:24;7.20;;;1.90;;
359;SDS011;168;48.872;9.226;2022-11-02T10:26:58;5.83;;;1.83;;
359;SDS011;168;48.872;9.226;2022-11-02T10:29:29;4.30;;;1.90;;
359;SDS011;168;48.872;9.226;2022-11-02T10:32:07;5.30;;;1.93;;
359;SDS011;168;48.872;9.226;2022-11-02T10:34:36;4.90;;;1.87;;
359;SDS011;168;48.872;9.226;2022-11-02T10:40:00;5.33;;;1.93;;
359;SDS011;168;48.872;9.226;2022-11-02T10:45:51;5.23;;;2.40;;
359;SDS011;168;48.872;9.226;2022-11-02T10:48:35;5.50;;;2.10;;
359;SDS011;168;48.872;9.226;2022-11-02T10:51:11;7.97;;;2.70;;
359;SDS011;168;48.872;9.226;2022-11-02T10:53:40;8.30;;;2.43;;
359;SDS011;168;48.872;9.226;2022-11-02T10:56:11;6.93;;;2.30;;
359;SDS011;168;48.872;9.226;2022-11-02T10:58:50;8.03;;;2.40;;
359;SDS011;168;48.872;9.226;2022-11-02T11:01:26;5.47;;;2.30;;
359;SDS011;168;48.872;9.226;2022-11-02T11:03:55;9.90;;;2.57;;
359;SDS011;168;48.872;9.226;2022-11-02T11:06:25;5.03;;;1.67;;
359;SDS011;168;48.872;9.226;2022-11-02T11:08:59;4.20;;;1.80;;
359;SDS011;168;48.872;9.226;2022-11-02T11:11:30;6.63;;;2.30;;
359;SDS011;168;48.872;9.226;2022-11-02T11:14:03;5.00;;;1.83;;
359;SDS011;168;48.872;9.226;2022-11-02T11:16:34;5.20;;;2.40;;
359;SDS011;168;48.872;9.226;2022-11-02T11:19:06;7.03;;;2.40;;
359;SDS011;168;48.872;9.226;2022-11-02T11:21:45;5.50;;;2.70;;
359;SDS011;168;48.872;9.226;2022-11-02T11:24:18;4.17;;;2.10;;
359;SDS011;168;48.872;9.226;2022-11-02T11:29:46;6.03;;;2.40;;
359;SDS011;168;48.872;9.226;2022-11-02T11:32:19;7.13;;;2.57;;
359;SDS011;168;48.872;9.226;2022-11-02T11:34:52;4.37;;;1.90;;
359;SDS011;168;48.872;9.226;2022-11-02T11:37:22;3.30;;;1.70;;
359;SDS011;168;48.872;9.226;2022-11-02T11:39:52;3.97;;;2.07;;
359;SDS011;168;48.872;9.226;2022-11-02T11:42:24;6.13;;;2.13;;
359;SDS011;168;48.872;9.226;2022-11-02T11:50:28;7.40;;;2.23;;
359;SDS011;168;48.872;9.226;2022-11-02T11:53:06;7.93;;;2.13;;
359;SDS011;168;48.872;9.226;2022-11-02T11:55:36;7.73;;;2.27;;
359;SDS011;168;48.872;9.226;2022-11-02T11:58:14;5.00;;;2.23;;
359;SDS011;168;48.872;9.226;2022-11-02T12:00:53;8.60;;;2.30;;
359;SDS011;168;48.872;9.226;2022-11-02T12:03:28;7.40;;;2.27;;
359;SDS011;168;48.872;9.226;2022-11-02T12:05:59;4.73;;;2.33;;
359;SDS011;168;48.872;9.226;2022-11-02T12:08:35;5.20;;;2.00;;
359;SDS011;168;48.872;9.226;2022-11-02T12:11:13;8.00;;;2.77;;
359;SDS011;168;48.872;9.226;2022-11-02T12:13:54;4.27;;;1.80;;
359;SDS011;168;48.872;9.226;2022-11-02T12:16:33;9.30;;;2.87;;
359;SDS011;168;48.872;9.226;2022-11-02T12:19:19;5.33;;;1.83;;
359;SDS011;168;48.872;9.226;2022-11-02T12:21:59;3.90;;;2.30;;
359;SDS011;168;48.872;9.226;2022-11-02T12:24:36;4.10;;;1.60;;
359;SDS011;168;48.872;9.226;2022-11-02T12:27:32;3.97;;;1.80;;
359;SDS011;168;48.872;9.226;2022-11-02T12:30:10;4.53;;;2.10;;
359;SDS011;168;48.872;9.226;2022-11-02T12:32:48;7.03;;;2.47;;
359;SDS011;168;48.872;9.226;2022-11-02T12:35:39;5.63;;;1.90;;
359;SDS011;168;48.872;9.226;2022-11-02T12:38:26;5.67;;;1.87;;
359;SDS011;168;48.872;9.226;2022-11-02T12:41:18;5.97;;;2.20;;
359;SDS011;168;48.872;9.226;2022-11-02T12:44:05;3.37;;;1.80;;
359;SDS011;168;48.872;9.226;2022-11-02T12:46:48;9.60;;;2.47;;
359;SDS011;168;48.872;9.226;2022-11-02T12:49:35;4.60;;;2.57;;
359;SDS011;168;48.872;9.226;2022-11-02T12:52:16;5.90;;;2.47;;
359;SDS011;168;48.872;9.226;2022-11-02T12:54:54;6.53;;;1.73;;
359;SDS011;168;48.872;9.226;2022-11-02T12:57:26;4.87;;;2.93;;
359;SDS011;168;48.872;9.226;2022-11-02T13:03:22;5.73;;;2.30;;
359;SDS011;168;48.872;9.226;2022-11-02T13:06:12;4.67;;;1.87;;
359;SDS011;168;48.872;9.226;2022-11-02T13:08:45;7.30;;;2.80;;
359;SDS011;168;48.872;9.226;2022-11-02T13:11:22;6.00;;;2.00;;
359;SDS011;168;48.872;9.226;2022-11-02T13:13:56;4.33;;;1.80;;
359;SDS011;168;48.872;9.226;2022-11-02T13:16:36;6.93;;;3.13;;
359;SDS011;168;48.872;9.226;2022-11-02T13:19:25;5.03;;;2.10;;
359;SDS011;168;48.872;9.226;2022-11-02T13:22:06;3.30;;;2.50;;
359;SDS011;168;48.872;9.226;2022-11-02T13:24:42;6.80;;;1.90;;
359;SDS011;168;48.872;9.226;2022-11-02T13:27:32;4.17;;;1.97;;
359;SDS011;168;48.872;9.226;2022-11-02T13:40:33;4.53;;;2.20;;
359;SDS011;168;48.872;9.226;2022-11-02T13:46:31;6.77;;;2.77;;
359;SDS011;168;48.872;9.226;2022-11-02T13:52:15;8.27;;;2.30;;
359;SDS011;168;48.872;9.226;2022-11-02T13:58:34;5.33;;;2.30;;
359;SDS011;168;48.872;9.226;2022-11-02T14:01:16;5.70;;;2.13;;
359;SDS011;168;48.872;9.226;2022-11-02T14:03:47;4.20;;;2.63;;
359;SDS011;168;48.872;9.226;2022-11-02T14:06:17;7.63;;;2.07;;
359;SDS011;168;48.872;9.226;2022-11-02T14:08:56;6.03;;;2.27;;
359;SDS011;168;48.872;9.226;2022-11-02T14:11:45;3.80;;;2.07;;
359;SDS011;168;48.872;9.226;2022-11-02T14:14:23;8.90;;;2.13;;
359;SDS011;168;48.872;9.226;2022-11-02T14:16:56;7.73;;;2.50;;
359;SDS011;168;48.872;9.226;2022-11-02T14:19:52;5.10;;;2.40;;
359;SDS011;168;48.872;9.226;2022-11-02T14:22:31;5.60;;;2.00;;
359;SDS011;168;48.872;9.226;2022-11-02T14:27:48;4.77;;;2.00;;
359;SDS011;168;48.872;9.226;2022-11-02T14:40:32;4.23;;;2.20;;
359;SDS011;168;48.872;9.226;2022-11-02T14:43:12;4.63;;;2.00;;
359;SDS011;168;48.872;9.226;2022-11-02T14:46:11;7.53;;;1.93;;
359;SDS011;168;48.872;9.226;2022-11-02T14:49:14;3.43;;;1.70;;
359;SDS011;168;48.872;9.226;2022-11-02T14:52:17;5.03;;;2.37;;
359;SDS011;168;48.872;9.226;2022-11-02T14:55:49;3.80;;;1.83;;
359;SDS011;168;48.872;9.226;2022-11-02T14:58:29;7.33;;;2.27;;
359;SDS011;168;48.872;9.226;2022-11-02T15:01:35;7.23;;;2.43;;
359;SDS011;168;48.872;9.226;2022-11-02T15:04:22;2.93;;;1.83;;
359;SDS011;168;48.872;9.226;2022-11-02T15:06:55;3.83;;;1.90;;
359;SDS011;168;48.872;9.226;2022-11-02T15:21:30;4.00;;;2.07;;
359;SDS011;168;48.872;9.226;2022-11-02T15:24:18;5.23;;;1.90;;
359;SDS011;168;48.872;9.226;2022-11-02T15:29:46;7.00;;;4.37;;
359;SDS011;168;48.872;9.226;2022-11-02T15:32:23;12.83;;;8.70;;
359;SDS011;168;48.872;9.226;2022-11-02T15:35:48;14.13;;;8.70;;
359;SDS011;168;48.872;9.226;2022-11-02T15:38:37;18.37;;;12.90;;
359;SDS011;168;48.872;9.226;2022-11-02T15:41:23;19.13;;;11.60;;
359;SDS011;168;48.872;9.226;2022-11-02T15:47:20;12.53;;;7.33;;
359;SDS011;168;48.872;9.226;2022-11-02T15:50:00;10.30;;;4.90;;
359;SDS011;168;48.872;9.226;2022-11-02T15:58:49;8.53;;;3.00;;
359;SDS011;168;48.872;9.226;2022-11-02T16:02:01;8.50;;;3.37;;
359;SDS011;168;48.872;9.226;2022-11-02T16:04:51;11.03;;;3.20;;
359;SDS011;168;48.872;9.226;2022-11-02T16:11:27;6.40;;;3.47;;
359;SDS011;168;48.872;9.226;2022-11-02T16:16:24;7.13;;;4.63;;
359;SDS011;168;48.872;9.226;2022-11-02T16:19:16;8.57;;;3.87;;
359;SDS011;168;48.872;9.226;2022-11-02T16:21:50;10.10;;;4.10;;
359;SDS011;168;48.872;9.226;2022-11-02T16:24:18;9.47;;;2.63;;
359;SDS011;168;48.872;9.226;2022-11-02T16:29:48;7.50;;;3.27;;
359;SDS011;168;48.872;9.226;2022-11-02T16:32:17;6.00;;;2.83;;
359;SDS011;168;48.872;9.226;2022-11-02T16:34:46;10.03;;;3.07;;
359;SDS011;168;48.872;9.226;2022-11-02T16:37:16;7.20;;;2.80;;
359;SDS011;168;48.872;9.226;2022-11-02T16:39:48;7.37;;;3.40;;
359;SDS011;168;48.872;9.226;2022-11-02T16:42:28;9.60;;;3.80;;
359;SDS011;168;48.872;9.226;2022-11-02T16:45:02;10.30;;;4.00;;
359;SDS011;168;48.872;9.226;2022-11-02T16:47:34;8.77;;;3.70;;
359;SDS011;168;48.872;9.226;2022-11-02T16:50:17;9.33;;;4.30;;
359;SDS011;168;48.872;9.226;2022-11-02T16:52:51;8.97;;;3.93;;
359;SDS011;168;48.872;9.226;2022-11-02T16:55:37;8.00;;;4.87;;
359;SDS011;168;48.872;9.226;2022-11-02T16:58:07;8.13;;;3.80;;
359;SDS011;168;48.872;9.226;2022-11-02T17:00:39;7.40;;;4.00;;
359;SDS011;168;48.872;9.226;2022-11-02T17:03:18;6.20;;;4.13;;
359;SDS011;168;48.872;9.226;2022-11-02T17:05:50;10.50;;;5.30;;
359;SDS011;168;48.872;9.226;2022-11-02T17:08:25;7.30;;;3.90;;
359;SDS011;168;48.872;9.226;2022-11-02T17:10:56;9.63;;;4.90;;
359;SDS011;168;48.872;9.226;2022-11-02T17:13:25;9.47;;;5.33;;
359;SDS011;168;48.872;9.226;2022-11-02T17:15:57;8.00;;;4.83;;
359;SDS011;168;48.872;9.226;2022-11-02T17:18:30;10.07;;;4.57;;
359;SDS011;168;48.872;9.226;2022-11-02T17:23:53;6.43;;;4.10;;
359;SDS011;168;48.872;9.226;2022-11-02T17:26:23;6.70;;;4.03;;
359;SDS011;168;48.872;9.226;2022-11-02T17:28:57;8.70;;;4.53;;
359;SDS011;168;48.872;9.226;2022-11-02T17:31:26;9.73;;;4.40;;
359;SDS011;168;48.872;9.226;2022-11-02T17:33:57;9.13;;;4.40;;
359;SDS011;168;48.872;9.226;2022-11-02T17:36:28;5.27;;;3.57;;
359;SDS011;168;48.872;9.226;2022-11-02T17:38:58;7.87;;;4.07;;
359;SDS011;168;48.872;9.226;2022-11-02T17:41:30;7.50;;;4.60;;
359;SDS011;168;48.872;9.226;2022-11-02T17:44:15;7.50;;;3.83;;
359;SDS011;168;48.872;9.226;2022-11-02T17:46:43;7.33;;;4.33;;
359;SDS011;168;48.872;9.226;2022-11-02T17:49:10;7.10;;;4.30;;
359;SDS011;168;48.872;9.226;2022-11-02T17:51:39;7.63;;;5.13;;
359;SDS011;168;48.872;9.226;2022-11-02T17:54:07;6.67;;;5.33;;